French Creek

NWS Weather station page.

Elevation
7422ft
Jump to table bottom
Date/Time Wind Direction Wind Speed knots Wind Gust knots RH % Accumulated Precip Inches Air Temp Fahrenheit
2022-06-28 22:16 WNW 3 15 17 6.98 67
2022-06-28 21:16 W 3 18 15 6.98 68
2022-06-28 20:16 W 5 17 16 6.98 72
2022-06-28 19:16 SW 3 10 20 6.98 75
2022-06-28 18:16 SSW 8 20 22 6.98 74
2022-06-28 17:16 SSE 6 25 27 6.98 75
2022-06-28 16:16 SSE 10 26 25 6.98 75
2022-06-28 15:16 S 16 28 22 6.98 76
2022-06-28 14:16 S 14 23 21 6.98 78
2022-06-28 13:16 SSE 10 19 25 6.98 77
2022-06-28 12:16 SSE 5 13 26 6.98 75
2022-06-28 11:16 SSE 5 10 25 6.98 73
2022-06-28 10:16 S 4 10 27 6.98 72
2022-06-28 09:16 SSE 4 10 30 6.98 68
2022-06-28 08:16 NNE 3 4 48 6.98 62
2022-06-28 07:16 NNE 3 10 47 6.98 58
2022-06-28 06:16 N 3 5 49 6.98 54
2022-06-28 04:16 N 3 5 47 6.98 53
2022-06-28 03:16 N 3 4 46 6.98 53
2022-06-28 02:16 N 3 6 43 6.98 53
2022-06-28 01:16 N 3 6 41 6.98 54
2022-06-28 00:16 N 3 6 37 6.98 56
2022-06-27 23:16 NNW 3 6 35 6.98 58
2022-06-27 22:16 NW 2 6 26 6.98 63
2022-06-27 21:16 NW 4 10 24 6.98 65
2022-06-27 20:16 N 6 14 21 6.98 69
2022-06-27 19:16 NNW 7 10 21 6.98 71
2022-06-27 18:16 WNW 5 16 17 6.98 77
2022-06-27 17:16 W 4 15 17 6.98 79
2022-06-27 16:16 SW 6 17 18 6.98 78
2022-06-27 15:16 NW 6 17 19 6.98 74
2022-06-27 14:16 W 6 14 19 6.98 75
2022-06-27 13:16 SSE 4 15 25 6.98 74
2022-06-27 12:16 SE 4 12 26 6.98 74
2022-06-27 11:16 SE 5 10 25 6.98 72
2022-06-27 10:16 ESE 3 8 18 6.98 71
2022-06-27 09:16 SE 3 5 28 6.98 68
2022-06-27 08:16 NNE 2 3 36 6.98 63
2022-06-27 07:16 N 3 5 46 6.98 54
2022-06-27 06:16 NNE 3 5 49 6.98 47
2022-06-27 05:16 NNE 3 5 46 6.98 47
2022-06-27 04:16 N 3 5 47 6.98 48
2022-06-27 03:16 N 3 6 49 6.98 47
2022-06-27 02:16 N 3 9 44 6.98 50
2022-06-27 01:16 N 3 5 42 6.98 51
2022-06-27 00:16 N 3 6 40 6.98 53
2022-06-26 23:16 NNW 3 6 37 6.98 53
2022-06-26 22:16 NNE 3 5 34 6.98 53
2022-06-26 21:16 NW 3 10 22 6.98 60